Time;durP1;ratioP1;P1;durP2;ratioP2;P2;SDS_P1;SDS_P2;PMS_P1;PMS_P2;Temp;Humidity;BMP_temperature;BMP_pressure;BME280_temperature;BME280_humidity;BME280_pressure;Samples;Min_cycle;Max_cycle;Signal;HPM_P1;HPM_P2
2024/02/29 00:01:39;;;;;;;34.20;16.88;;;7.40;99.90;;;;;;4956125;29;20081;-90
2024/02/29 00:04:06;;;;;;;38.65;16.90;;;6.50;99.90;;;;;;4943978;29;20123;-90
2024/02/29 00:06:34;;;;;;;37.08;16.55;;;6.50;99.90;;;;;;4943915;29;20051;-90
2024/02/29 00:09:00;;;;;;;37.80;16.17;;;6.50;99.90;;;;;;4943623;29;20175;-90
2024/02/29 00:11:27;;;;;;;36.28;17.13;;;6.50;99.90;;;;;;4943203;29;20059;-90
2024/02/29 00:13:54;;;;;;;36.10;16.40;;;6.50;99.90;;;;;;4943941;29;20071;-90
2024/02/29 00:16:20;;;;;;;35.45;15.95;;;7.10;99.90;;;;;;4943900;29;20042;-90
2024/02/29 00:18:47;;;;;;;36.80;16.48;;;7.50;99.90;;;;;;4943640;29;20043;-90
2024/02/29 00:21:14;;;;;;;35.03;16.75;;;6.30;99.90;;;;;;4943782;29;20039;-90
2024/02/29 00:23:41;;;;;;;38.28;16.80;;;7.20;99.90;;;;;;4943695;29;20270;-91
2024/02/29 00:26:08;;;;;;;36.53;16.20;;;6.20;99.90;;;;;;4939455;29;20167;-90
2024/02/29 00:28:34;;;;;;;35.47;16.48;;;6.50;99.90;;;;;;4935639;29;20058;-90
2024/02/29 00:31:01;;;;;;;39.75;17.02;;;6.90;99.90;;;;;;4942521;29;20489;-90
2024/02/29 00:33:28;;;;;;;36.70;16.33;;;6.10;99.90;;;;;;4951787;29;20091;-91
2024/02/29 00:35:54;;;;;;;37.22;16.42;;;6.10;99.90;;;;;;4943509;29;20051;-90
2024/02/29 00:38:21;;;;;;;36.08;16.73;;;5.90;99.90;;;;;;4945998;29;20047;-90
2024/02/29 00:40:48;;;;;;;37.78;17.05;;;5.90;99.90;;;;;;4943720;29;20032;-90
2024/02/29 00:43:14;;;;;;;35.70;15.93;;;5.90;99.90;;;;;;4943858;29;20044;-90
2024/02/29 00:45:41;;;;;;;33.30;14.82;;;6.50;99.90;;;;;;4943842;29;20413;-90
2024/02/29 00:48:07;;;;;;;34.15;15.55;;;5.80;99.90;;;;;;4943547;29;20047;-90
2024/02/29 00:50:34;;;;;;;36.55;16.45;;;5.70;99.90;;;;;;4943504;29;20047;-90
2024/02/29 00:53:01;;;;;;;38.78;16.33;;;5.60;99.90;;;;;;4943659;29;20135;-90
2024/02/29 00:55:27;;;;;;;36.63;15.80;;;5.70;99.90;;;;;;4941820;29;20038;-90
2024/02/29 00:57:54;;;;;;;32.33;15.60;;;5.60;99.90;;;;;;4948687;29;20080;-90
2024/02/29 01:00:21;;;;;;;38.30;16.73;;;5.90;99.90;;;;;;4940104;29;20043;-91
2024/02/29 01:02:47;;;;;;;36.95;16.27;;;5.50;99.90;;;;;;4943476;29;20126;-91
2024/02/29 01:05:15;;;;;;;34.92;16.10;;;5.50;99.90;;;;;;4943583;29;20497;-90
2024/02/29 01:07:41;;;;;;;41.50;16.58;;;5.40;99.90;;;;;;4943342;29;20515;-90
2024/02/29 01:10:11;;;;;;;39.63;16.35;;;6.40;99.90;;;;;;4953200;29;20041;-90
2024/02/29 01:12:41;;;;;;;35.28;15.45;;;6.30;99.90;;;;;;4940492;29;20040;-90
2024/02/29 01:15:09;;;;;;;37.65;16.08;;;5.30;99.90;;;;;;4940133;29;20504;-90
2024/02/29 01:17:36;;;;;;;37.67;17.27;;;5.30;99.90;;;;;;4950768;29;20049;-90
2024/02/29 01:20:05;;;;;;;38.60;16.92;;;6.30;99.90;;;;;;4952914;29;20126;-90
2024/02/29 01:22:31;;;;;;;35.78;15.93;;;5.30;99.90;;;;;;4949175;29;20505;-90
2024/02/29 01:24:58;;;;;;;36.67;16.52;;;5.30;99.90;;;;;;4944802;29;20046;-90
2024/02/29 01:27:25;;;;;;;36.90;15.93;;;5.40;99.90;;;;;;4940155;29;20036;-90
2024/02/29 01:29:54;;;;;;;39.00;17.30;;;6.30;99.90;;;;;;4940072;29;20497;-90
2024/02/29 01:32:21;;;;;;;37.75;16.20;;;5.30;99.90;;;;;;4937235;29;20044;-90
2024/02/29 01:34:48;;;;;;;36.45;15.68;;;5.80;99.90;;;;;;4930054;29;20102;-90
2024/02/29 01:37:14;;;;;;;35.80;15.15;;;5.20;99.90;;;;;;4939007;29;20036;-90
2024/02/29 01:39:41;;;;;;;34.60;15.35;;;6.40;99.90;;;;;;4940166;29;20052;-90
2024/02/29 01:42:08;;;;;;;35.70;16.25;;;5.20;99.90;;;;;;4939951;29;20043;-90
2024/02/29 01:44:43;;;;;;;39.40;15.68;;;5.20;99.90;;;;;;4933380;29;20040;-90
2024/02/29 01:47:12;;;;;;;39.43;16.27;;;5.20;99.90;;;;;;4931449;29;20044;-91
2024/02/29 01:49:39;;;;;;;34.28;15.38;;;5.50;99.90;;;;;;4925610;29;20051;-90
2024/02/29 01:52:07;;;;;;;37.80;15.93;;;5.20;99.90;;;;;;4922143;29;20126;-90
2024/02/29 01:54:34;;;;;;;37.25;15.73;;;5.70;99.90;;;;;;4955401;29;20146;-91
2024/02/29 01:57:04;;;;;;;39.25;16.42;;;5.20;99.90;;;;;;4927308;29;20039;-90
2024/02/29 01:59:31;;;;;;;41.13;16.95;;;5.30;99.90;;;;;;4954993;29;20039;-90
2024/02/29 02:01:58;;;;;;;39.30;16.40;;;5.20;99.90;;;;;;4939320;29;20059;-90
2024/02/29 02:04:25;;;;;;;34.83;16.23;;;5.20;99.90;;;;;;4939958;29;20039;-89
2024/02/29 02:06:52;;;;;;;41.38;17.30;;;5.60;99.90;;;;;;4939489;29;20485;-90
2024/02/29 02:09:18;;;;;;;34.90;16.35;;;6.10;99.90;;;;;;4939104;29;20048;-89
2024/02/29 02:11:45;;;;;;;36.22;15.85;;;5.80;99.90;;;;;;4939319;29;20035;-90
2024/02/29 02:14:11;;;;;;;33.47;14.88;;;5.20;99.90;;;;;;4947380;29;20164;-90
2024/02/29 02:16:38;;;;;;;35.60;16.55;;;5.20;99.90;;;;;;4939650;29;20108;-90
2024/02/29 02:19:14;;;;;;;34.60;15.93;;;5.20;99.90;;;;;;4955038;29;20040;-90
2024/02/29 02:21:42;;;;;;;35.00;15.07;;;5.20;99.90;;;;;;4932170;29;20597;-90
2024/02/29 02:24:09;;;;;;;42.03;15.90;;;5.10;99.90;;;;;;4939086;29;20044;-90
2024/02/29 02:26:36;;;;;;;35.05;15.50;;;5.20;99.90;;;;;;4931262;29;20102;-90
2024/02/29 02:29:04;;;;;;;31.33;15.02;;;5.80;99.90;;;;;;4934808;29;20066;-89
2024/02/29 02:31:30;;;;;;;35.20;15.50;;;5.20;99.90;;;;;;4954312;29;20035;-89
2024/02/29 02:33:57;;;;;;;36.88;14.85;;;5.30;99.90;;;;;;4950183;29;20099;-90
2024/02/29 02:36:24;;;;;;;34.80;15.32;;;6.30;99.90;;;;;;4938903;29;20505;-90
2024/02/29 02:38:51;;;;;;;35.83;15.35;;;6.40;99.90;;;;;;4932611;29;20048;-90
2024/02/29 02:41:18;;;;;;;31.25;14.05;;;5.40;99.90;;;;;;4938964;29;20796;-91
2024/02/29 02:43:48;;;;;;;31.67;13.95;;;5.40;99.90;;;;;;4939353;29;20048;-90
2024/02/29 02:46:15;;;;;;;34.83;13.98;;;5.40;99.90;;;;;;4923435;29;20558;-90
2024/02/29 02:48:42;;;;;;;31.85;14.10;;;6.20;99.90;;;;;;4929438;29;20052;-90
2024/02/29 02:51:09;;;;;;;32.85;13.60;;;5.50;99.90;;;;;;4938846;29;20058;-90
2024/02/29 02:53:35;;;;;;;34.65;14.10;;;6.10;99.90;;;;;;4944891;29;20102;-89
2024/02/29 02:56:03;;;;;;;34.72;13.82;;;5.50;99.90;;;;;;4937926;29;20067;-89
2024/02/29 02:58:30;;;;;;;29.38;13.10;;;5.60;99.90;;;;;;4938671;29;20032;-90
2024/02/29 03:00:57;;;;;;;29.02;13.40;;;5.60;99.90;;;;;;4954398;29;20102;-90
2024/02/29 03:03:23;;;;;;;29.25;13.38;;;5.80;99.90;;;;;;4926130;29;20071;-89
2024/02/29 03:05:50;;;;;;;27.77;13.13;;;6.10;99.90;;;;;;4938477;29;20044;-90
2024/02/29 03:08:17;;;;;;;28.75;12.55;;;6.50;99.90;;;;;;4937520;29;20413;-90
2024/02/29 03:10:43;;;;;;;28.35;13.77;;;5.60;99.90;;;;;;4942323;29;20043;-90
2024/02/29 03:13:10;;;;;;;28.40;13.13;;;5.60;99.90;;;;;;4938447;29;20417;-90
2024/02/29 03:15:37;;;;;;;31.77;13.07;;;5.60;99.90;;;;;;4938556;29;20046;-90
2024/02/29 03:18:07;;;;;;;30.80;13.40;;;5.60;99.90;;;;;;4938030;29;20063;-90
2024/02/29 03:20:34;;;;;;;26.13;13.32;;;5.60;99.90;;;;;;4938411;29;20047;-90
2024/02/29 03:23:00;;;;;;;30.55;13.50;;;6.20;99.90;;;;;;4938255;29;20054;-90
2024/02/29 03:25:27;;;;;;;26.77;13.43;;;5.70;99.90;;;;;;4938437;29;20051;-89
2024/02/29 03:27:54;;;;;;;29.55;12.90;;;5.60;99.90;;;;;;4950568;29;20052;-89
2024/02/29 03:30:20;;;;;;;25.90;12.48;;;6.50;99.90;;;;;;4932907;29;20050;-90
2024/02/29 03:32:47;;;;;;;27.73;12.38;;;5.60;99.90;;;;;;4937147;29;20046;-89
2024/02/29 03:35:14;;;;;;;24.92;12.40;;;6.00;99.90;;;;;;4925149;29;20052;-90
2024/02/29 03:37:40;;;;;;;27.23;12.35;;;5.60;99.90;;;;;;4934994;29;20508;-90
2024/02/29 03:40:10;;;;;;;30.70;13.00;;;5.70;99.90;;;;;;4952893;29;20115;-90
2024/02/29 03:42:38;;;;;;;31.08;13.32;;;5.70;99.90;;;;;;4930588;29;20044;-90
2024/02/29 03:45:05;;;;;;;32.05;13.57;;;5.70;99.90;;;;;;4953487;29;20044;-90
2024/02/29 03:47:32;;;;;;;26.30;12.88;;;5.70;99.90;;;;;;4937678;29;20055;-90
2024/02/29 03:49:58;;;;;;;28.45;13.05;;;6.20;99.90;;;;;;4933692;29;20040;-90
2024/02/29 03:52:25;;;;;;;30.13;13.32;;;5.70;99.90;;;;;;4927742;29;20040;-90
2024/02/29 03:54:52;;;;;;;26.85;12.40;;;6.10;99.90;;;;;;4937983;29;20477;-90
2024/02/29 03:57:18;;;;;;;27.65;12.75;;;6.00;99.90;;;;;;4949437;29;20044;-90
2024/02/29 03:59:47;;;;;;;29.73;13.55;;;5.70;99.90;;;;;;4924198;29;20040;-90
2024/02/29 04:02:14;;;;;;;26.65;12.40;;;5.70;99.90;;;;;;4947519;29;20051;-90
2024/02/29 04:04:40;;;;;;;24.50;11.90;;;5.70;99.90;;;;;;4926250;29;20126;-90
2024/02/29 04:07:07;;;;;;;31.95;13.15;;;6.80;99.90;;;;;;4934971;29;20103;-90
2024/02/29 04:09:35;;;;;;;27.30;12.70;;;5.70;99.90;;;;;;4940979;29;20048;-89
2024/02/29 04:12:02;;;;;;;26.98;13.48;;;6.60;99.90;;;;;;4933668;29;20043;-89
2024/02/29 04:14:33;;;;;;;25.48;12.52;;;6.00;99.90;;;;;;4951725;29;20132;-90
2024/02/29 04:17:00;;;;;;;28.15;12.57;;;5.70;99.90;;;;;;4937519;29;20039;-90
2024/02/29 04:19:27;;;;;;;25.38;11.98;;;6.80;99.90;;;;;;4940737;29;20087;-90
2024/02/29 04:21:54;;;;;;;28.17;11.77;;;5.80;99.90;;;;;;4937885;29;20087;-90
2024/02/29 04:24:20;;;;;;;26.92;12.57;;;6.50;99.90;;;;;;4937137;29;20078;-89
2024/02/29 04:26:47;;;;;;;25.75;11.23;;;5.80;99.90;;;;;;4941657;29;20070;-90
2024/02/29 04:29:13;;;;;;;24.70;11.75;;;5.80;99.90;;;;;;4940504;29;20118;-90
2024/02/29 04:31:47;;;;;;;25.13;12.13;;;5.80;99.90;;;;;;4937254;29;20115;-89
2024/02/29 04:34:13;;;;;;;24.45;11.50;;;6.50;99.90;;;;;;4937311;29;20091;-90
2024/02/29 04:36:40;;;;;;;25.15;10.68;;;6.80;99.90;;;;;;4918307;29;20408;-90
2024/02/29 04:39:07;;;;;;;24.02;11.25;;;5.80;99.90;;;;;;4933830;29;20068;-89
2024/02/29 04:41:33;;;;;;;25.00;11.55;;;5.80;99.90;;;;;;4930159;29;20043;-89
2024/02/29 04:44:00;;;;;;;28.75;11.40;;;5.80;99.90;;;;;;4939347;29;20040;-90
2024/02/29 04:46:27;;;;;;;23.35;11.60;;;5.80;99.90;;;;;;4933453;29;20040;-90
2024/02/29 04:48:53;;;;;;;21.92;10.48;;;6.00;99.90;;;;;;4924573;29;20521;-90
2024/02/29 04:51:20;;;;;;;20.98;10.35;;;5.80;99.90;;;;;;4938899;29;20122;-90
2024/02/29 04:53:47;;;;;;;21.05;11.05;;;5.80;99.90;;;;;;4941096;29;20043;-90
2024/02/29 04:56:14;;;;;;;21.60;10.25;;;6.80;99.90;;;;;;4932829;29;20047;-90
2024/02/29 04:58:40;;;;;;;20.40;10.48;;;5.80;99.90;;;;;;4934574;29;20048;-90
2024/02/29 05:01:07;;;;;;;18.52;9.93;;;5.80;99.90;;;;;;4931095;29;20123;-90
2024/02/29 05:03:34;;;;;;;20.75;10.18;;;7.00;99.90;;;;;;4940370;29;20043;-90
2024/02/29 05:06:01;;;;;;;17.90;8.82;;;5.80;99.90;;;;;;4930850;29;20051;-90
2024/02/29 05:08:28;;;;;;;20.42;9.25;;;6.00;99.90;;;;;;4937942;29;20047;-90
2024/02/29 05:10:55;;;;;;;19.65;9.35;;;6.90;99.90;;;;;;4937077;29;20043;-89
2024/02/29 05:13:21;;;;;;;19.42;8.85;;;6.00;99.90;;;;;;4950739;29;20040;-90
2024/02/29 05:15:48;;;;;;;16.75;8.45;;;5.80;99.90;;;;;;4956520;29;20397;-90
2024/02/29 05:18:14;;;;;;;18.02;9.00;;;6.80;99.90;;;;;;4950353;29;20043;-90
2024/02/29 05:20:41;;;;;;;15.20;8.65;;;5.90;99.90;;;;;;4940613;29;20531;-90
2024/02/29 05:23:08;;;;;;;21.58;8.57;;;5.80;99.90;;;;;;4934737;29;20047;-90
2024/02/29 05:25:35;;;;;;;17.70;8.02;;;6.70;99.90;;;;;;4932890;29;20395;-89
2024/02/29 05:28:02;;;;;;;16.20;7.90;;;6.50;99.90;;;;;;4939934;29;20044;-90
2024/02/29 05:30:29;;;;;;;15.60;8.70;;;5.80;99.90;;;;;;4939860;29;20623;-89
2024/02/29 05:32:55;;;;;;;19.23;8.32;;;5.80;99.90;;;;;;4925104;29;20032;-90
2024/02/29 05:35:22;;;;;;;20.48;8.98;;;6.20;99.90;;;;;;4938129;29;20899;-90
2024/02/29 05:37:49;;;;;;;17.45;8.15;;;6.40;99.90;;;;;;4928875;29;20043;-90
2024/02/29 05:40:16;;;;;;;17.77;8.30;;;5.80;99.90;;;;;;4940113;29;20071;-90
2024/02/29 05:42:42;;;;;;;16.02;7.72;;;5.80;99.90;;;;;;4940619;29;20039;-90
2024/02/29 05:45:10;;;;;;;15.88;7.93;;;5.80;99.90;;;;;;4935473;29;20040;-90
2024/02/29 05:47:37;;;;;;;16.95;8.05;;;5.80;99.90;;;;;;4939275;29;20043;-90
2024/02/29 05:50:05;;;;;;;17.67;8.10;;;5.80;99.90;;;;;;4931288;29;20111;-90
2024/02/29 05:52:31;;;;;;;16.20;7.93;;;5.80;99.90;;;;;;4939391;29;20043;-90
2024/02/29 05:54:59;;;;;;;17.90;8.45;;;5.80;99.90;;;;;;4941307;29;20099;-90
2024/02/29 05:57:30;;;;;;;17.13;8.50;;;6.90;99.90;;;;;;4942912;29;20040;-90
2024/02/29 05:59:57;;;;;;;15.95;8.10;;;5.80;99.90;;;;;;4936676;29;20044;-91
2024/02/29 06:02:24;;;;;;;17.25;8.68;;;6.20;99.90;;;;;;4939924;29;20404;-90
2024/02/29 06:04:50;;;;;;;17.33;7.45;;;6.30;99.90;;;;;;4940180;29;20043;-90
2024/02/29 06:07:17;;;;;;;16.20;7.53;;;6.50;99.90;;;;;;4938820;29;20051;-90
2024/02/29 06:09:44;;;;;;;17.83;8.18;;;5.90;99.90;;;;;;4939431;29;20405;-89
2024/02/29 06:12:10;;;;;;;16.25;7.47;;;6.80;99.90;;;;;;4939494;29;20047;-90
2024/02/29 06:14:37;;;;;;;15.23;7.35;;;6.40;99.90;;;;;;4938684;29;20044;-90
2024/02/29 06:17:04;;;;;;;16.73;7.68;;;5.90;99.90;;;;;;4937895;29;20158;-90
2024/02/29 06:19:31;;;;;;;14.35;7.55;;;5.90;99.90;;;;;;4952715;29;20050;-90
2024/02/29 06:21:57;;;;;;;15.00;7.35;;;5.90;99.90;;;;;;4938861;29;20103;-90
2024/02/29 06:24:27;;;;;;;16.48;7.40;;;5.90;99.90;;;;;;4954501;29;20074;-90
2024/02/29 06:26:53;;;;;;;14.88;7.03;;;6.70;99.90;;;;;;4935610;29;20048;-89
2024/02/29 06:29:20;;;;;;;16.77;7.60;;;6.30;99.90;;;;;;4944275;29;20088;-90
2024/02/29 06:31:47;;;;;;;14.68;7.07;;;6.90;99.90;;;;;;4955068;29;20043;-90
2024/02/29 06:34:13;;;;;;;13.57;7.25;;;6.00;99.90;;;;;;4928392;29;20051;-90
2024/02/29 06:36:40;;;;;;;13.63;7.38;;;6.60;99.90;;;;;;4938724;29;20039;-90
2024/02/29 06:39:08;;;;;;;17.02;7.57;;;6.70;99.90;;;;;;4939322;29;20442;-90
2024/02/29 06:41:36;;;;;;;15.13;7.47;;;6.10;99.90;;;;;;4938543;29;20106;-90
2024/02/29 06:44:05;;;;;;;14.02;6.88;;;5.40;99.90;;;;;;4938443;29;20090;-90
2024/02/29 06:46:39;;;;;;;13.23;7.22;;;6.80;99.90;;;;;;4938914;29;20067;-90
2024/02/29 06:49:06;;;;;;;14.13;6.97;;;6.10;99.90;;;;;;4938219;29;20044;-90
2024/02/29 06:51:34;;;;;;;14.00;6.57;;;7.20;99.90;;;;;;4940455;29;20401;-90
2024/02/29 06:54:02;;;;;;;14.98;7.13;;;6.90;99.90;;;;;;4941124;29;20051;-89
2024/02/29 06:56:29;;;;;;;12.85;6.35;;;7.10;99.90;;;;;;4938626;29;20051;-90
2024/02/29 06:58:55;;;;;;;14.82;6.47;;;6.20;99.90;;;;;;4935472;29;20045;-90
2024/02/29 07:01:23;;;;;;;13.93;6.97;;;6.20;99.90;;;;;;4933925;29;20054;-90
2024/02/29 07:03:49;;;;;;;13.85;6.78;;;6.20;99.90;;;;;;4938272;29;20043;-90
2024/02/29 07:06:16;;;;;;;13.32;6.43;;;6.20;99.90;;;;;;4938023;29;20035;-90
2024/02/29 07:08:43;;;;;;;13.23;6.82;;;6.20;99.90;;;;;;4925889;29;20993;-90
2024/02/29 07:11:11;;;;;;;13.90;6.90;;;6.80;99.90;;;;;;4937960;29;20040;-90
2024/02/29 07:13:38;;;;;;;13.52;7.00;;;6.50;99.90;;;;;;4938508;29;20489;-90
2024/02/29 07:16:05;;;;;;;12.27;6.95;;;7.40;99.90;;;;;;4938534;29;20044;-90
2024/02/29 07:18:32;;;;;;;15.52;7.15;;;7.10;99.90;;;;;;4937639;29;20126;-90
2024/02/29 07:20:59;;;;;;;13.63;6.93;;;6.80;99.90;;;;;;4939901;29;20111;-89
2024/02/29 07:23:25;;;;;;;15.52;7.05;;;6.30;99.90;;;;;;4969785;29;20413;-89
2024/02/29 07:25:53;;;;;;;13.07;6.90;;;6.50;99.90;;;;;;4937705;29;20095;-88
2024/02/29 07:28:19;;;;;;;11.82;6.40;;;6.30;99.90;;;;;;4937948;29;20126;-89
2024/02/29 07:30:46;;;;;;;13.70;6.80;;;6.40;99.90;;;;;;4931483;29;20562;-89
2024/02/29 07:33:13;;;;;;;15.43;7.43;;;6.30;99.90;;;;;;4937384;29;20071;-89
2024/02/29 07:35:39;;;;;;;16.02;6.85;;;6.70;99.90;;;;;;4937157;29;20564;-89
2024/02/29 07:38:06;;;;;;;15.00;7.35;;;7.20;99.90;;;;;;4938239;29;20039;-89
2024/02/29 07:40:33;;;;;;;16.20;7.40;;;6.60;99.90;;;;;;4938058;29;20043;-90
2024/02/29 07:43:00;;;;;;;14.68;7.57;;;6.80;99.90;;;;;;4950718;29;20485;-89
2024/02/29 07:45:27;;;;;;;16.15;9.15;;;7.30;99.90;;;;;;4931389;29;20036;-88
2024/02/29 07:47:53;;;;;;;17.08;7.53;;;6.30;99.90;;;;;;4934869;29;20183;-89
2024/02/29 07:50:20;;;;;;;15.15;7.75;;;6.30;99.90;;;;;;4926238;29;20040;-91
2024/02/29 07:52:47;;;;;;;15.02;7.00;;;6.90;99.90;;;;;;4937490;29;20204;-91
2024/02/29 07:55:14;;;;;;;16.45;7.28;;;6.30;99.90;;;;;;4938109;29;20036;-92
2024/02/29 07:57:41;;;;;;;14.23;7.40;;;6.30;99.90;;;;;;4948912;29;20036;-91
2024/02/29 08:00:10;;;;;;;15.15;7.35;;;7.20;99.90;;;;;;4953432;29;20465;-91
2024/02/29 08:02:41;;;;;;;17.52;7.35;;;6.30;99.90;;;;;;4935752;29;21321;-91
2024/02/29 08:05:09;;;;;;;15.80;7.75;;;6.60;99.90;;;;;;4939701;29;20048;-91
2024/02/29 08:07:36;;;;;;;14.85;7.80;;;7.10;99.90;;;;;;4918936;29;20060;-92
2024/02/29 08:10:04;;;;;;;15.55;7.40;;;6.40;99.90;;;;;;4953761;29;20130;-92
2024/02/29 08:12:31;;;;;;;14.43;8.00;;;6.30;99.90;;;;;;4937442;29;20493;-91
2024/02/29 08:14:57;;;;;;;15.50;7.47;;;6.40;99.90;;;;;;4937570;29;20050;-91
2024/02/29 08:17:28;;;;;;;13.90;7.57;;;6.60;99.90;;;;;;4937158;29;20052;-91
2024/02/29 08:19:55;;;;;;;14.45;7.50;;;7.10;99.90;;;;;;4941554;29;20047;-91
2024/02/29 08:22:21;;;;;;;15.48;7.38;;;7.50;99.90;;;;;;4935778;29;20059;-92
2024/02/29 08:24:48;;;;;;;14.90;7.45;;;7.10;99.90;;;;;;4943596;29;20043;-91
2024/02/29 08:27:15;;;;;;;14.10;7.25;;;6.40;99.90;;;;;;4941175;29;20051;-91
2024/02/29 08:29:41;;;;;;;16.17;7.25;;;6.50;99.90;;;;;;4940752;29;20046;-91
2024/02/29 08:32:08;;;;;;;16.67;7.35;;;7.10;99.90;;;;;;4941395;29;20048;-90
2024/02/29 08:34:35;;;;;;;15.75;7.65;;;7.40;99.90;;;;;;4941618;29;20127;-91
2024/02/29 08:37:02;;;;;;;16.30;7.30;;;6.50;99.90;;;;;;4927033;29;20068;-90
2024/02/29 08:39:29;;;;;;;14.93;7.13;;;7.50;99.90;;;;;;4940904;29;20382;-91
2024/02/29 08:41:56;;;;;;;13.25;7.60;;;7.10;99.90;;;;;;4940515;29;20050;-90
2024/02/29 08:44:22;;;;;;;15.75;7.38;;;6.80;99.90;;;;;;4940615;29;20126;-91
2024/02/29 08:46:49;;;;;;;14.57;7.55;;;7.20;99.90;;;;;;4942881;29;20044;-91
2024/02/29 08:49:15;;;;;;;15.88;7.70;;;6.90;99.90;;;;;;4941121;29;20531;-90
2024/02/29 08:51:42;;;;;;;16.83;7.00;;;6.60;99.90;;;;;;4939490;29;20039;-90
2024/02/29 08:54:09;;;;;;;14.40;7.15;;;6.90;99.90;;;;;;4940469;29;20135;-89
2024/02/29 08:56:36;;;;;;;14.13;7.10;;;6.70;99.90;;;;;;4941005;29;20040;-90
2024/02/29 08:59:03;;;;;;;16.33;7.25;;;6.90;99.90;;;;;;4940689;29;20194;-90
2024/02/29 09:01:29;;;;;;;14.57;7.53;;;6.70;99.90;;;;;;4940881;29;20095;-90
2024/02/29 09:03:56;;;;;;;20.17;7.25;;;6.80;99.90;;;;;;4939139;29;20043;-89
2024/02/29 09:06:22;;;;;;;21.95;7.88;;;7.60;99.90;;;;;;4939554;29;20122;-89
2024/02/29 09:08:49;;;;;;;14.40;7.10;;;6.80;99.90;;;;;;4955453;29;20043;-89
2024/02/29 09:11:16;;;;;;;15.40;7.70;;;6.80;99.90;;;;;;4940232;29;20040;-89
2024/02/29 09:13:42;;;;;;;18.42;7.53;;;7.50;99.90;;;;;;4940573;29;20043;-89
2024/02/29 09:16:09;;;;;;;13.85;7.57;;;7.00;99.90;;;;;;4940063;29;20040;-89
2024/02/29 09:18:36;;;;;;;15.45;7.50;;;7.00;99.90;;;;;;4940327;29;20070;-89
2024/02/29 09:21:02;;;;;;;16.45;6.95;;;7.00;99.90;;;;;;4940258;29;20032;-89
2024/02/29 09:23:29;;;;;;;16.67;7.28;;;7.10;99.90;;;;;;4940132;29;20044;-89
2024/02/29 09:25:56;;;;;;;14.07;6.50;;;7.10;99.90;;;;;;4940073;29;20031;-89
2024/02/29 09:28:22;;;;;;;14.35;7.63;;;7.20;99.90;;;;;;4939737;29;20626;-89
2024/02/29 09:30:49;;;;;;;14.60;8.00;;;7.10;99.90;;;;;;4953973;29;20123;-89
2024/02/29 09:33:16;;;;;;;19.65;7.40;;;8.00;99.90;;;;;;4939633;29;20040;-89
2024/02/29 09:35:42;;;;;;;18.25;7.82;;;7.80;99.90;;;;;;4938470;29;20428;-89
2024/02/29 09:38:09;;;;;;;14.05;7.32;;;7.50;99.90;;;;;;4938991;29;20043;-89
2024/02/29 09:40:36;;;;;;;16.00;7.18;;;8.00;99.90;;;;;;4940200;29;20087;-87
2024/02/29 09:43:04;;;;;;;15.65;8.30;;;7.30;99.90;;;;;;4956069;29;20035;-89
2024/02/29 09:45:34;;;;;;;14.13;7.00;;;7.30;99.90;;;;;;4939749;29;20032;-87
2024/02/29 09:48:01;;;;;;;14.48;7.25;;;7.30;99.90;;;;;;4952302;29;20036;-89
2024/02/29 09:50:28;;;;;;;19.27;7.60;;;7.30;99.90;;;;;;4952286;29;20131;-88
2024/02/29 09:52:55;;;;;;;14.48;7.18;;;7.30;99.90;;;;;;4955379;29;20142;-89
2024/02/29 09:55:22;;;;;;;15.38;7.40;;;7.80;99.90;;;;;;4939952;29;20050;-89
2024/02/29 09:57:50;;;;;;;13.43;7.28;;;7.20;99.90;;;;;;4939995;29;20031;-89
2024/02/29 10:00:17;;;;;;;14.68;7.63;;;7.20;99.90;;;;;;4940081;29;20114;-89
2024/02/29 10:02:46;;;;;;;13.10;7.55;;;7.20;99.90;;;;;;4938527;29;20523;-89
2024/02/29 10:05:12;;;;;;;15.40;7.85;;;7.30;99.90;;;;;;4939655;29;20051;-89
2024/02/29 10:07:48;;;;;;;15.27;7.47;;;7.30;99.90;;;;;;4939047;29;20048;-89
2024/02/29 10:10:16;;;;;;;16.35;8.05;;;7.30;99.90;;;;;;4931799;29;20127;-91
2024/02/29 10:12:43;;;;;;;17.65;8.13;;;7.30;99.90;;;;;;4938860;29;20555;-90
2024/02/29 10:15:10;;;;;;;14.13;7.75;;;7.50;99.90;;;;;;4948668;29;20498;-91
2024/02/29 10:17:38;;;;;;;18.42;7.53;;;8.40;99.90;;;;;;4932914;29;20063;-92
2024/02/29 10:20:11;;;;;;;16.30;8.10;;;8.30;99.90;;;;;;4924098;29;20123;-90
2024/02/29 10:22:44;;;;;;;17.38;8.25;;;7.30;99.90;;;;;;4950545;29;20044;-91
2024/02/29 10:25:12;;;;;;;16.63;8.30;;;7.30;99.90;;;;;;4933231;29;20040;-90
2024/02/29 10:27:40;;;;;;;16.08;8.07;;;7.40;99.90;;;;;;4939408;29;20040;-89
2024/02/29 10:30:18;;;;;;;16.52;7.55;;;7.30;99.90;;;;;;4938988;29;20043;-89
2024/02/29 10:32:46;;;;;;;19.95;8.85;;;7.40;99.90;;;;;;4936758;29;20035;-89
2024/02/29 10:35:19;;;;;;;16.13;8.05;;;7.40;99.90;;;;;;4954160;29;20151;-91
2024/02/29 10:37:46;;;;;;;19.42;8.38;;;7.30;99.90;;;;;;4934939;29;20051;-90
2024/02/29 10:40:13;;;;;;;19.75;8.48;;;7.30;99.90;;;;;;4933290;29;20032;-90
2024/02/29 10:42:41;;;;;;;18.75;8.63;;;7.30;99.90;;;;;;4934820;29;20127;-89
2024/02/29 10:45:17;;;;;;;17.60;8.25;;;7.40;99.90;;;;;;4933399;29;20043;-89
2024/02/29 10:47:53;;;;;;;16.52;8.60;;;7.60;99.90;;;;;;4938635;29;20079;-89
2024/02/29 10:50:25;;;;;;;16.58;8.30;;;7.40;99.90;;;;;;4954372;29;20040;-89
2024/02/29 10:53:09;;;;;;;15.98;8.98;;;7.80;99.90;;;;;;4938057;29;20039;-89
2024/02/29 10:55:56;;;;;;;17.08;9.25;;;7.40;99.90;;;;;;4930443;29;20040;-89
2024/02/29 10:58:26;;;;;;;21.13;8.73;;;7.60;99.90;;;;;;4939842;29;20043;-89
2024/02/29 11:00:53;;;;;;;20.48;10.05;;;7.50;99.90;;;;;;4938116;29;20082;-90
2024/02/29 11:03:21;;;;;;;18.05;8.95;;;7.50;99.90;;;;;;4940814;29;20071;-90
2024/02/29 11:05:49;;;;;;;18.20;9.27;;;7.50;99.90;;;;;;4954337;29;20097;-90
2024/02/29 11:08:16;;;;;;;19.15;10.05;;;7.90;99.90;;;;;;4938487;29;20046;-90
2024/02/29 11:10:47;;;;;;;19.35;9.70;;;7.90;99.90;;;;;;4924754;29;20147;-93
2024/02/29 11:13:20;;;;;;;20.05;9.95;;;7.80;99.90;;;;;;4932272;29;20032;-90
2024/02/29 11:15:50;;;;;;;24.95;9.80;;;8.10;99.90;;;;;;4953457;29;20062;-90
2024/02/29 11:18:25;;;;;;;18.80;9.63;;;7.50;99.90;;;;;;4937822;29;20040;-91
2024/02/29 11:21:04;;;;;;;18.17;9.45;;;7.60;99.90;;;;;;4936096;29;20039;-90
2024/02/29 11:23:39;;;;;;;19.75;9.43;;;7.70;99.90;;;;;;4929843;29;20047;-90
2024/02/29 11:26:10;;;;;;;19.98;9.82;;;7.70;99.90;;;;;;4936503;29;20126;-90
2024/02/29 11:28:49;;;;;;;21.77;9.35;;;7.80;99.90;;;;;;4942338;29;20086;-90
2024/02/29 11:31:17;;;;;;;17.85;9.23;;;7.80;99.90;;;;;;4937176;29;20043;-90
2024/02/29 11:33:46;;;;;;;21.58;10.23;;;8.90;99.90;;;;;;4937079;29;20036;-90
2024/02/29 11:36:13;;;;;;;18.05;9.07;;;8.50;99.90;;;;;;4937635;29;20043;-90
2024/02/29 11:38:40;;;;;;;16.27;8.45;;;9.10;99.90;;;;;;4942573;29;21302;-90
2024/02/29 11:41:18;;;;;;;19.35;8.93;;;8.90;99.90;;;;;;4937667;29;20109;-91
2024/02/29 11:43:46;;;;;;;19.98;9.35;;;8.00;99.90;;;;;;4935863;29;20028;-91
2024/02/29 11:46:14;;;;;;;20.10;9.18;;;7.90;99.90;;;;;;4937123;29;20054;-91
2024/02/29 11:48:41;;;;;;;15.82;8.35;;;7.90;99.90;;;;;;4937619;29;20067;-90
2024/02/29 11:51:08;;;;;;;16.63;9.23;;;8.40;99.90;;;;;;4937500;29;20390;-91
2024/02/29 11:53:36;;;;;;;18.77;9.27;;;7.80;99.90;;;;;;4937148;29;20091;-90
2024/02/29 11:56:04;;;;;;;17.58;9.00;;;7.80;99.90;;;;;;4937048;29;20046;-90
2024/02/29 11:58:33;;;;;;;21.95;9.65;;;7.80;99.90;;;;;;4937103;29;20043;-90
2024/02/29 12:01:00;;;;;;;21.73;9.00;;;7.90;99.90;;;;;;4937238;29;20040;-90
2024/02/29 12:03:30;;;;;;;19.35;9.10;;;8.80;99.90;;;;;;4937390;29;20054;-90
2024/02/29 12:06:00;;;;;;;16.98;8.60;;;7.80;99.90;;;;;;4937580;29;20078;-89
2024/02/29 12:08:28;;;;;;;18.00;9.10;;;7.80;99.90;;;;;;4953286;29;20040;-89
2024/02/29 12:11:01;;;;;;;18.75;8.63;;;8.00;99.90;;;;;;4937483;29;20051;-89
2024/02/29 12:13:29;;;;;;;16.20;8.55;;;8.20;99.90;;;;;;4936793;29;20083;-89
2024/02/29 12:15:56;;;;;;;16.73;8.70;;;8.30;99.90;;;;;;4943710;29;20027;-90
2024/02/29 12:18:23;;;;;;;20.73;9.55;;;8.00;99.90;;;;;;4924684;29;20036;-89
2024/02/29 12:20:51;;;;;;;15.82;8.18;;;7.80;99.90;;;;;;4935248;29;20522;-89
2024/02/29 12:23:19;;;;;;;19.00;8.88;;;7.80;99.90;;;;;;4937338;29;20059;-90
2024/02/29 12:25:46;;;;;;;17.10;8.18;;;7.80;99.90;;;;;;4937585;29;20043;-89
2024/02/29 12:28:13;;;;;;;15.85;8.48;;;8.40;99.90;;;;;;4937092;29;20648;-90
2024/02/29 12:30:40;;;;;;;18.67;9.70;;;8.70;99.90;;;;;;4924988;29;20131;-90
2024/02/29 12:33:08;;;;;;;19.00;8.93;;;7.90;99.90;;;;;;4937790;29;20035;-90
2024/02/29 12:35:34;;;;;;;16.17;8.65;;;7.90;99.90;;;;;;4936864;29;20059;-90
2024/02/29 12:38:04;;;;;;;18.38;9.32;;;7.90;99.90;;;;;;4937164;29;20044;-90
2024/02/29 12:40:33;;;;;;;14.70;7.97;;;8.50;99.90;;;;;;4949976;29;20054;-89
2024/02/29 12:42:59;;;;;;;16.30;8.40;;;8.20;99.90;;;;;;4947746;29;20063;-90
2024/02/29 12:45:26;;;;;;;21.52;8.85;;;8.10;99.90;;;;;;4937672;29;20040;-89